Time;durP1;ratioP1;P1;durP2;ratioP2;P2;SDS_P1;SDS_P2;PMS_P1;PMS_P2;Temp;Humidity;BMP_temperature;BMP_pressure;BME280_temperature;BME280_humidity;BME280_pressure;Samples;Min_cycle;Max_cycle;Signal;HPM_P1;HPM_P2
2021/06/29 00:01:33;;;;;;;10.97;10.00;;;;;;;;;;5054253;28;20524;-71
2021/06/29 00:03:59;;;;;;;10.47;9.63;;;;;;;;;;5053882;28;20885;-72
2021/06/29 00:06:25;;;;;;;10.77;9.77;;;;;;;;;;5054505;28;20500;-73
2021/06/29 00:08:51;;;;;;;10.93;10.07;;;;;;;;;;5053723;28;20439;-73
2021/06/29 00:11:17;;;;;;;10.87;10.07;;;;;;;;;;5054676;28;20434;-73
2021/06/29 00:13:44;;;;;;;11.80;10.60;;;;;;;;;;5053947;28;20460;-72
2021/06/29 00:16:10;;;;;;;11.43;10.53;;;;;;;;;;5054214;28;20415;-74
2021/06/29 00:18:36;;;;;;;11.73;10.73;;;;;;;;;;5053599;28;20773;-73
2021/06/29 00:21:02;;;;;;;10.23;9.43;;;;;;;;;;5054242;28;20451;-75
2021/06/29 00:23:28;;;;;;;12.53;11.40;;;;;;;;;;5054002;28;20444;-72
2021/06/29 00:25:54;;;;;;;11.80;10.80;;;;;;;;;;5054029;28;20415;-75
2021/06/29 00:28:20;;;;;;;12.33;11.20;;;;;;;;;;5051513;28;20427;-74
2021/06/29 00:30:46;;;;;;;11.87;10.87;;;;;;;;;;5053979;28;20408;-73
2021/06/29 00:33:12;;;;;;;11.07;10.17;;;;;;;;;;5053995;28;20411;-74
2021/06/29 00:35:38;;;;;;;12.03;11.03;;;;;;;;;;5053808;28;20431;-72
2021/06/29 00:38:05;;;;;;;12.13;11.03;;;;;;;;;;5053374;28;20418;-74
2021/06/29 00:40:31;;;;;;;12.07;10.97;;;;;;;;;;5053458;28;20404;-73
2021/06/29 00:42:57;;;;;;;12.37;11.37;;;;;;;;;;5053693;28;20498;-74
2021/06/29 00:45:23;;;;;;;12.63;11.63;;;;;;;;;;5053571;28;20411;-72
2021/06/29 00:47:49;;;;;;;12.20;11.20;;;;;;;;;;5052999;28;20407;-75
2021/06/29 00:50:16;;;;;;;13.30;12.20;;;;;;;;;;5053593;28;20435;-72
2021/06/29 00:52:42;;;;;;;12.93;11.70;;;;;;;;;;5053607;28;20501;-76
2021/06/29 00:55:11;;;;;;;11.77;10.87;;;;;;;;;;5052178;28;20419;-74
2021/06/29 00:57:37;;;;;;;12.53;11.50;;;;;;;;;;5053029;28;20422;-73
2021/06/29 01:00:07;;;;;;;13.23;12.03;;;;;;;;;;5053070;28;20443;-75
2021/06/29 01:02:33;;;;;;;12.50;11.40;;;;;;;;;;5053730;28;20808;-77
2021/06/29 01:04:59;;;;;;;13.40;12.20;;;;;;;;;;5053555;28;20490;-74
2021/06/29 01:07:25;;;;;;;11.70;10.80;;;;;;;;;;5053299;28;20420;-73
2021/06/29 01:09:51;;;;;;;12.60;11.60;;;;;;;;;;5053267;28;20461;-76
2021/06/29 01:12:17;;;;;;;12.43;11.40;;;;;;;;;;5053635;28;20502;-73
2021/06/29 01:14:43;;;;;;;12.80;11.70;;;;;;;;;;5053330;28;20434;-75
2021/06/29 01:17:09;;;;;;;12.83;11.77;;;;;;;;;;5052803;28;20764;-74
2021/06/29 01:22:06;;;;;;;13.17;12.17;;;;;;;;;;5053258;28;20473;-73
2021/06/29 01:24:33;;;;;;;13.27;12.17;;;;;;;;;;5053512;28;20444;-75
2021/06/29 01:32:12;;;;;;;13.47;12.17;;;;;;;;;;5053075;28;20490;-74
2021/06/29 01:34:38;;;;;;;14.00;12.70;;;;;;;;;;5051905;28;20420;-73
2021/06/29 01:37:04;;;;;;;13.80;12.50;;;;;;;;;;5052849;28;20419;-73
2021/06/29 01:39:30;;;;;;;13.93;12.83;;;;;;;;;;5052846;28;20442;-72
2021/06/29 01:41:56;;;;;;;13.83;12.63;;;;;;;;;;5052836;28;20463;-73
2021/06/29 01:44:26;;;;;;;13.03;12.00;;;;;;;;;;5052861;28;20725;-73
2021/06/29 01:46:54;;;;;;;14.57;13.37;;;;;;;;;;5052600;28;20498;-72
2021/06/29 01:49:24;;;;;;;14.10;13.00;;;;;;;;;;5052904;28;20430;-72
2021/06/29 01:51:50;;;;;;;13.70;12.43;;;;;;;;;;5055136;28;20435;-71
2021/06/29 01:54:16;;;;;;;14.20;12.90;;;;;;;;;;5056807;28;20882;-73
2021/06/29 01:56:44;;;;;;;13.50;12.30;;;;;;;;;;5056577;28;20419;-74
2021/06/29 01:59:12;;;;;;;14.17;13.07;;;;;;;;;;5056752;28;20471;-74
2021/06/29 02:01:38;;;;;;;14.13;12.90;;;;;;;;;;5056767;28;20454;-75
2021/06/29 02:04:04;;;;;;;13.87;12.67;;;;;;;;;;5056992;28;20403;-73
2021/06/29 02:06:30;;;;;;;13.73;12.43;;;;;;;;;;5056700;28;20965;-73
2021/06/29 02:08:56;;;;;;;14.83;13.63;;;;;;;;;;5056288;28;20526;-74
2021/06/29 02:11:22;;;;;;;14.40;13.10;;;;;;;;;;5055476;28;20431;-72
2021/06/29 02:13:49;;;;;;;14.53;13.33;;;;;;;;;;5056682;28;20415;-79
2021/06/29 02:16:15;;;;;;;14.40;13.20;;;;;;;;;;5056478;28;20419;-73
2021/06/29 02:18:41;;;;;;;13.87;12.67;;;;;;;;;;5055926;28;20491;-75
2021/06/29 02:21:07;;;;;;;14.30;13.20;;;;;;;;;;5056443;28;20545;-74
2021/06/29 02:23:34;;;;;;;15.23;13.97;;;;;;;;;;5056644;28;20523;-75
2021/06/29 02:26:00;;;;;;;16.73;15.23;;;;;;;;;;5056452;28;20908;-75
2021/06/29 02:28:26;;;;;;;15.77;14.40;;;;;;;;;;5054979;28;20427;-75
2021/06/29 02:30:53;;;;;;;16.23;14.87;;;;;;;;;;5056471;28;20446;-74
2021/06/29 02:33:19;;;;;;;15.57;14.17;;;;;;;;;;5056403;28;20498;-74
2021/06/29 02:35:45;;;;;;;15.43;14.03;;;;;;;;;;5056443;28;20399;-72
2021/06/29 02:38:11;;;;;;;15.80;14.20;;;;;;;;;;5055890;28;20756;-74
2021/06/29 02:40:37;;;;;;;15.90;14.40;;;;;;;;;;5054733;28;20765;-73
2021/06/29 02:43:03;;;;;;;16.30;14.83;;;;;;;;;;5056007;28;20462;-70
2021/06/29 02:45:29;;;;;;;15.50;14.17;;;;;;;;;;5056213;28;20545;-73
2021/06/29 02:48:01;;;;;;;17.20;15.53;;;;;;;;;;5055598;28;20465;-73
2021/06/29 02:50:27;;;;;;;16.03;14.63;;;;;;;;;;5056010;28;20942;-74
2021/06/29 02:52:53;;;;;;;16.30;14.70;;;;;;;;;;5055816;28;20758;-73
2021/06/29 02:55:19;;;;;;;16.63;15.13;;;;;;;;;;5055854;28;20556;-72
2021/06/29 02:57:45;;;;;;;18.40;16.50;;;;;;;;;;5054139;28;20440;-73
2021/06/29 03:00:12;;;;;;;16.60;15.00;;;;;;;;;;5055759;28;20450;-75
2021/06/29 03:02:38;;;;;;;16.80;15.40;;;;;;;;;;5055590;28;20466;-73
2021/06/29 03:05:05;;;;;;;16.60;15.23;;;;;;;;;;5055595;28;20407;-76
2021/06/29 03:07:31;;;;;;;15.73;14.33;;;;;;;;;;5055614;28;20425;-75
2021/06/29 03:10:00;;;;;;;17.40;15.90;;;;;;;;;;5055494;28;20908;-75
2021/06/29 03:12:26;;;;;;;18.60;17.00;;;;;;;;;;5055433;28;20422;-73
2021/06/29 03:15:17;;;;;;;17.33;15.77;;;;;;;;;;4999783;28;20458;-75
2021/06/29 03:17:43;;;;;;;16.77;15.23;;;;;;;;;;5055204;28;20487;-74
2021/06/29 03:20:10;;;;;;;17.47;15.87;;;;;;;;;;5055467;28;20442;-74
2021/06/29 03:22:36;;;;;;;17.27;15.80;;;;;;;;;;5055514;28;20486;-75
2021/06/29 03:25:02;;;;;;;18.17;16.67;;;;;;;;;;5055276;28;20423;-74
2021/06/29 03:27:28;;;;;;;16.63;15.23;;;;;;;;;;5054821;28;20415;-74
2021/06/29 03:29:54;;;;;;;17.33;15.73;;;;;;;;;;5053289;28;20431;-75
2021/06/29 03:32:20;;;;;;;16.73;15.23;;;;;;;;;;5055226;28;20554;-75
2021/06/29 03:34:46;;;;;;;16.00;14.60;;;;;;;;;;5054271;28;20431;-74
2021/06/29 03:37:12;;;;;;;16.47;15.07;;;;;;;;;;5054744;28;20430;-74
2021/06/29 03:39:38;;;;;;;17.47;15.87;;;;;;;;;;5055214;28;20439;-72
2021/06/29 03:42:05;;;;;;;16.73;15.23;;;;;;;;;;5055025;28;20459;-74
2021/06/29 03:44:31;;;;;;;15.83;14.30;;;;;;;;;;5054927;28;20412;-75
2021/06/29 03:46:57;;;;;;;15.53;14.23;;;;;;;;;;5054519;28;20779;-73
2021/06/29 03:49:23;;;;;;;15.50;14.10;;;;;;;;;;5054895;28;20475;-73
2021/06/29 03:51:50;;;;;;;16.37;14.97;;;;;;;;;;5054822;28;20450;-73
2021/06/29 03:54:16;;;;;;;15.50;14.10;;;;;;;;;;5070406;28;20435;-75
2021/06/29 03:56:42;;;;;;;18.10;16.50;;;;;;;;;;5054380;28;20506;-75
2021/06/29 03:59:10;;;;;;;16.13;14.17;;;;;;;;;;5054435;28;20843;-74
2021/06/29 04:01:36;;;;;;;16.40;14.70;;;;;;;;;;5054397;28;20550;-74
2021/06/29 04:04:03;;;;;;;15.63;14.30;;;;;;;;;;5053640;28;20430;-74
2021/06/29 04:06:30;;;;;;;14.60;13.30;;;;;;;;;;5054624;28;20407;-72
2021/06/29 04:08:57;;;;;;;16.53;15.03;;;;;;;;;;5054248;28;20708;-74
2021/06/29 04:11:23;;;;;;;15.83;14.20;;;;;;;;;;5053056;28;20422;-75
2021/06/29 04:13:50;;;;;;;14.37;13.23;;;;;;;;;;5054236;28;20784;-72
2021/06/29 04:16:16;;;;;;;15.33;13.83;;;;;;;;;;5054717;28;20407;-75
2021/06/29 04:18:42;;;;;;;15.00;13.57;;;;;;;;;;5054003;28;20438;-75
2021/06/29 04:21:08;;;;;;;16.03;14.63;;;;;;;;;;5054497;28;20815;-75
2021/06/29 04:23:35;;;;;;;14.23;13.00;;;;;;;;;;5054518;28;20412;-73
2021/06/29 04:26:01;;;;;;;13.93;12.83;;;;;;;;;;5054572;28;20418;-74
2021/06/29 04:28:27;;;;;;;15.70;14.20;;;;;;;;;;5046532;28;20424;-74
2021/06/29 04:30:53;;;;;;;14.33;12.97;;;;;;;;;;5052754;28;20430;-76
2021/06/29 04:33:20;;;;;;;13.13;12.13;;;;;;;;;;5054088;28;20423;-73
2021/06/29 04:35:46;;;;;;;12.90;11.83;;;;;;;;;;5054140;28;20412;-76
2021/06/29 04:38:12;;;;;;;13.73;12.43;;;;;;;;;;5053547;28;20407;-75
2021/06/29 04:40:38;;;;;;;13.37;12.37;;;;;;;;;;5053952;28;20400;-75
2021/06/29 04:43:04;;;;;;;11.97;11.00;;;;;;;;;;5053612;28;20455;-75
2021/06/29 04:45:30;;;;;;;13.47;12.20;;;;;;;;;;5054126;28;20506;-72
2021/06/29 04:47:57;;;;;;;13.20;12.20;;;;;;;;;;5053427;28;20411;-75
2021/06/29 04:50:23;;;;;;;13.83;12.80;;;;;;;;;;5053848;28;20939;-74
2021/06/29 04:52:50;;;;;;;12.90;11.90;;;;;;;;;;5053752;28;20887;-75
2021/06/29 04:55:16;;;;;;;15.53;14.17;;;;;;;;;;5053029;28;20442;-76
2021/06/29 04:57:42;;;;;;;16.23;14.70;;;;;;;;;;5053143;28;20485;-74
2021/06/29 05:00:10;;;;;;;15.13;13.77;;;;;;;;;;5053706;28;20447;-74
2021/06/29 05:02:36;;;;;;;14.17;13.07;;;;;;;;;;5053907;28;20494;-74
2021/06/29 05:05:03;;;;;;;13.93;12.63;;;;;;;;;;5053490;28;20937;-73
2021/06/29 05:07:29;;;;;;;15.47;14.00;;;;;;;;;;5051671;28;20506;-76
2021/06/29 05:09:55;;;;;;;15.17;13.77;;;;;;;;;;5053579;28;20519;-75
2021/06/29 05:12:21;;;;;;;14.07;12.87;;;;;;;;;;5053474;28;20415;-74
2021/06/29 05:14:47;;;;;;;15.43;14.03;;;;;;;;;;5053872;28;20430;-73
2021/06/29 05:17:13;;;;;;;14.17;12.90;;;;;;;;;;5053047;28;20424;-73
2021/06/29 05:19:39;;;;;;;14.70;13.30;;;;;;;;;;5053753;28;20443;-74
2021/06/29 05:22:06;;;;;;;13.90;12.70;;;;;;;;;;5053314;28;20531;-71
2021/06/29 05:24:32;;;;;;;13.27;11.47;;;;;;;;;;5053227;28;20419;-75
2021/06/29 05:26:58;;;;;;;12.33;11.30;;;;;;;;;;5050774;28;20415;-75
2021/06/29 05:29:25;;;;;;;11.90;11.00;;;;;;;;;;5045457;28;21014;-72
2021/06/29 05:31:51;;;;;;;11.37;10.30;;;;;;;;;;5053096;28;20498;-76
2021/06/29 05:34:17;;;;;;;12.17;11.17;;;;;;;;;;5053372;28;20859;-76
2021/06/29 05:36:43;;;;;;;11.37;10.37;;;;;;;;;;5053042;28;20772;-73
2021/06/29 05:39:09;;;;;;;11.80;10.90;;;;;;;;;;5053179;28;20435;-74
2021/06/29 05:41:35;;;;;;;10.67;9.87;;;;;;;;;;5051554;28;20487;-75
2021/06/29 05:44:01;;;;;;;10.77;9.53;;;;;;;;;;5052983;28;20411;-72
2021/06/29 05:46:28;;;;;;;10.80;9.83;;;;;;;;;;5052920;28;20880;-75
2021/06/29 05:48:54;;;;;;;11.03;9.93;;;;;;;;;;5052632;28;20497;-74
2021/06/29 05:51:21;;;;;;;9.20;8.50;;;;;;;;;;5053066;28;20411;-73
2021/06/29 05:53:47;;;;;;;9.07;8.27;;;;;;;;;;5053166;28;20408;-73
2021/06/29 05:56:13;;;;;;;8.63;7.93;;;;;;;;;;5052619;28;20416;-73
2021/06/29 05:58:40;;;;;;;8.57;7.77;;;;;;;;;;5052111;28;20454;-74
2021/06/29 06:01:06;;;;;;;8.20;7.50;;;;;;;;;;5052959;28;20580;-74
2021/06/29 06:03:32;;;;;;;8.50;7.83;;;;;;;;;;5053454;28;20408;-74
2021/06/29 06:05:58;;;;;;;8.77;7.90;;;;;;;;;;5053048;28;20410;-73
2021/06/29 06:08:24;;;;;;;8.20;7.50;;;;;;;;;;5052168;28;21414;-74
2021/06/29 06:10:51;;;;;;;8.00;7.30;;;;;;;;;;5052754;28;20752;-73
2021/06/29 06:13:17;;;;;;;7.70;7.20;;;;;;;;;;5052255;28;20423;-70
2021/06/29 06:15:43;;;;;;;7.83;7.30;;;;;;;;;;5052753;28;20408;-72
2021/06/29 06:18:09;;;;;;;7.80;7.20;;;;;;;;;;5051083;28;20947;-74
2021/06/29 06:20:36;;;;;;;8.10;7.50;;;;;;;;;;5039517;28;20869;-73
2021/06/29 06:23:03;;;;;;;8.73;8.00;;;;;;;;;;5052632;28;20796;-71
2021/06/29 06:25:29;;;;;;;9.17;8.37;;;;;;;;;;5052896;28;20415;-73
2021/06/29 06:27:55;;;;;;;9.60;8.90;;;;;;;;;;5052278;28;20415;-73
2021/06/29 06:30:21;;;;;;;8.90;8.30;;;;;;;;;;5046720;28;20479;-76
2021/06/29 06:32:47;;;;;;;9.43;8.23;;;;;;;;;;5046184;28;20433;-73
2021/06/29 06:35:13;;;;;;;8.70;8.00;;;;;;;;;;5051579;28;20469;-75
2021/06/29 06:37:39;;;;;;;9.27;8.37;;;;;;;;;;5053891;28;20419;-74
2021/06/29 06:40:06;;;;;;;9.07;8.27;;;;;;;;;;5056400;28;20433;-73
2021/06/29 06:42:32;;;;;;;10.63;9.63;;;;;;;;;;5049949;28;20503;-72
2021/06/29 06:44:59;;;;;;;9.57;8.97;;;;;;;;;;5049151;28;21031;-74
2021/06/29 06:47:25;;;;;;;9.37;8.57;;;;;;;;;;5041726;28;20416;-74
2021/06/29 06:49:51;;;;;;;8.90;8.30;;;;;;;;;;5045761;28;20975;-78
2021/06/29 06:52:17;;;;;;;9.27;8.53;;;;;;;;;;5034312;28;20424;-74
2021/06/29 06:54:43;;;;;;;11.90;10.70;;;;;;;;;;5050664;28;20900;-76
2021/06/29 06:57:10;;;;;;;9.27;8.57;;;;;;;;;;5050070;28;20938;-77
2021/06/29 06:59:36;;;;;;;10.43;9.53;;;;;;;;;;5049249;28;20864;-75
2021/06/29 07:02:02;;;;;;;9.13;8.43;;;;;;;;;;5038969;28;20554;-75
2021/06/29 07:04:28;;;;;;;9.90;9.20;;;;;;;;;;5052084;28;20871;-74
2021/06/29 07:06:54;;;;;;;10.30;9.50;;;;;;;;;;5051801;28;20411;-75
2021/06/29 07:09:20;;;;;;;11.50;10.47;;;;;;;;;;5044725;28;20468;-77
2021/06/29 07:11:47;;;;;;;10.97;9.97;;;;;;;;;;5046109;28;20505;-74
2021/06/29 07:14:13;;;;;;;11.60;10.60;;;;;;;;;;5051624;28;20457;-78
2021/06/29 07:16:39;;;;;;;11.77;10.80;;;;;;;;;;5051253;28;20419;-74
2021/06/29 07:19:05;;;;;;;10.83;9.93;;;;;;;;;;5051565;28;20471;-75
2021/06/29 07:21:31;;;;;;;10.70;9.73;;;;;;;;;;5051435;28;20455;-76
2021/06/29 07:23:57;;;;;;;11.00;10.20;;;;;;;;;;5051868;28;20454;-77
2021/06/29 07:26:24;;;;;;;11.23;10.43;;;;;;;;;;5050922;28;20443;-74
2021/06/29 07:28:50;;;;;;;11.80;10.70;;;;;;;;;;5040285;28;20796;-73
2021/06/29 07:31:17;;;;;;;11.10;10.20;;;;;;;;;;5051444;28;20424;-77
2021/06/29 07:33:45;;;;;;;10.50;9.80;;;;;;;;;;5051666;28;20776;-76
2021/06/29 07:36:12;;;;;;;11.27;10.47;;;;;;;;;;5051643;28;20527;-76
2021/06/29 07:38:38;;;;;;;10.30;9.40;;;;;;;;;;5051067;28;21052;-74
2021/06/29 07:41:05;;;;;;;10.10;9.40;;;;;;;;;;5039122;28;20448;-73
2021/06/29 07:43:31;;;;;;;11.00;10.10;;;;;;;;;;5051182;28;20419;-75
2021/06/29 07:45:57;;;;;;;11.67;10.70;;;;;;;;;;5050968;28;20408;-76
2021/06/29 07:48:22;;;;;;;10.70;9.90;;;;;;;;;;5049984;28;20432;-75
2021/06/29 07:50:49;;;;;;;11.33;10.33;;;;;;;;;;5050818;28;20411;-74
2021/06/29 07:53:15;;;;;;;11.20;10.10;;;;;;;;;;5051193;28;20789;-73
2021/06/29 07:55:41;;;;;;;10.77;9.97;;;;;;;;;;5051098;28;20428;-73
2021/06/29 07:58:07;;;;;;;10.30;9.50;;;;;;;;;;5050788;28;20934;-73
2021/06/29 08:00:36;;;;;;;10.57;9.77;;;;;;;;;;5050790;28;20427;-77
2021/06/29 08:03:03;;;;;;;10.50;9.73;;;;;;;;;;5050637;28;20839;-75
2021/06/29 08:05:29;;;;;;;10.47;9.67;;;;;;;;;;5049250;28;20986;-76
2021/06/29 08:07:55;;;;;;;11.57;9.80;;;;;;;;;;5050471;28;20816;-72
2021/06/29 08:10:21;;;;;;;11.07;10.03;;;;;;;;;;5049413;28;20470;-72
2021/06/29 08:12:47;;;;;;;11.07;10.30;;;;;;;;;;5050663;28;20415;-73
2021/06/29 08:15:15;;;;;;;10.30;9.50;;;;;;;;;;5050717;28;20430;-74
2021/06/29 08:17:41;;;;;;;9.97;9.27;;;;;;;;;;5050335;28;20997;-74
2021/06/29 08:20:07;;;;;;;10.33;9.63;;;;;;;;;;5050478;28;20542;-76
2021/06/29 08:22:33;;;;;;;11.30;10.40;;;;;;;;;;5050685;28;20459;-76
2021/06/29 08:24:59;;;;;;;10.40;9.60;;;;;;;;;;5050262;28;20419;-74
2021/06/29 08:27:25;;;;;;;10.73;9.93;;;;;;;;;;5050151;28;20769;-75
2021/06/29 08:29:53;;;;;;;11.90;11.00;;;;;;;;;;5050258;28;20446;-76
2021/06/29 08:32:20;;;;;;;13.27;12.17;;;;;;;;;;5050657;28;20473;-74
2021/06/29 08:34:46;;;;;;;12.70;11.70;;;;;;;;;;5048903;28;20436;-74
2021/06/29 08:37:12;;;;;;;12.00;11.10;;;;;;;;;;5050003;28;20522;-73
2021/06/29 08:39:38;;;;;;;12.10;11.20;;;;;;;;;;5049953;28;20532;-73
2021/06/29 08:42:04;;;;;;;9.60;8.87;;;;;;;;;;5050365;28;20465;-76
2021/06/29 08:44:30;;;;;;;9.30;8.70;;;;;;;;;;5049385;28;20427;-74
2021/06/29 08:46:56;;;;;;;11.57;10.67;;;;;;;;;;5049707;28;20438;-73
2021/06/29 08:49:22;;;;;;;10.80;10.00;;;;;;;;;;5049991;28;20474;-75
2021/06/29 08:51:50;;;;;;;10.87;10.17;;;;;;;;;;5048845;28;20427;-75
2021/06/29 08:54:17;;;;;;;11.20;10.20;;;;;;;;;;5049763;28;20830;-76
2021/06/29 08:56:43;;;;;;;9.73;9.03;;;;;;;;;;5049528;28;20431;-76
2021/06/29 08:59:09;;;;;;;10.20;9.40;;;;;;;;;;5049712;28;20459;-75
2021/06/29 09:01:35;;;;;;;9.60;8.90;;;;;;;;;;5049608;28;20459;-73
2021/06/29 09:04:01;;;;;;;9.60;8.97;;;;;;;;;;5048445;28;20423;-75
2021/06/29 09:06:37;;;;;;;9.13;8.50;;;;;;;;;;5049835;28;20411;-73
2021/06/29 09:09:22;;;;;;;10.57;9.83;;;;;;;;;;5049466;28;20439;-73
2021/06/29 09:11:49;;;;;;;11.47;10.50;;;;;;;;;;5048744;28;20823;-76
2021/06/29 09:14:16;;;;;;;11.93;11.13;;;;;;;;;;5049888;28;20416;-76
2021/06/29 09:16:43;;;;;;;11.53;10.53;;;;;;;;;;5035979;28;20478;-74
2021/06/29 09:19:09;;;;;;;12.27;11.37;;;;;;;;;;5049634;28;20442;-75
2021/06/29 09:21:38;;;;;;;11.37;10.30;;;;;;;;;;5049579;28;20465;-74
2021/06/29 09:24:05;;;;;;;12.43;11.43;;;;;;;;;;5049795;28;20414;-73
2021/06/29 09:26:31;;;;;;;12.23;11.33;;;;;;;;;;5049342;28;20450;-75
2021/06/29 09:28:58;;;;;;;13.70;12.70;;;;;;;;;;5048903;28;20427;-73
2021/06/29 09:31:27;;;;;;;12.10;11.20;;;;;;;;;;5048747;28;20753;-75
2021/06/29 09:33:55;;;;;;;12.20;11.30;;;;;;;;;;5049475;28;20411;-75
2021/06/29 09:36:25;;;;;;;11.30;10.30;;;;;;;;;;5049236;28;20970;-74
2021/06/29 09:38:53;;;;;;;11.77;10.87;;;;;;;;;;5048713;28;20443;-74
2021/06/29 09:41:22;;;;;;;11.70;10.80;;;;;;;;;;5049330;28;20459;-77
2021/06/29 09:43:52;;;;;;;10.60;9.90;;;;;;;;;;5048804;28;20407;-74
2021/06/29 09:46:19;;;;;;;11.00;10.10;;;;;;;;;;5047475;28;20892;-73
2021/06/29 09:48:47;;;;;;;13.03;11.93;;;;;;;;;;5048950;28;20428;-73
2021/06/29 09:51:16;;;;;;;11.20;10.13;;;;;;;;;;5049137;28;20934;-74
2021/06/29 09:53:43;;;;;;;9.47;8.70;;;;;;;;;;5049481;28;20477;-76
2021/06/29 09:56:13;;;;;;;10.40;9.70;;;;;;;;;;5049499;28;20915;-73
2021/06/29 09:58:41;;;;;;;9.90;9.10;;;;;;;;;;5049010;28;20459;-77
2021/06/29 10:01:07;;;;;;;9.10;8.33;;;;;;;;;;5048986;28;20411;-75
2021/06/29 10:03:35;;;;;;;10.80;9.03;;;;;;;;;;5049243;28;20403;-73
2021/06/29 10:06:02;;;;;;;8.57;8.03;;;;;;;;;;5035947;28;20403;-74
2021/06/29 10:08:30;;;;;;;9.03;8.23;;;;;;;;;;5048958;28;20953;-76
2021/06/29 10:11:06;;;;;;;8.93;8.27;;;;;;;;;;5048818;28;20495;-76
2021/06/29 10:13:34;;;;;;;9.50;8.90;;;;;;;;;;5050973;28;20431;-75
2021/06/29 10:16:01;;;;;;;9.00;8.40;;;;;;;;;;5053296;28;20477;-76
2021/06/29 10:18:30;;;;;;;8.80;8.13;;;;;;;;;;5052508;28;20496;-74
2021/06/29 10:20:59;;;;;;;7.60;7.10;;;;;;;;;;5052881;28;20419;-75
2021/06/29 10:23:26;;;;;;;8.93;8.33;;;;;;;;;;5051675;28;20419;-73
2021/06/29 10:25:53;;;;;;;10.37;9.60;;;;;;;;;;5051745;28;20418;-76
2021/06/29 10:28:19;;;;;;;9.50;8.80;;;;;;;;;;5049150;28;20435;-77
2021/06/29 10:30:45;;;;;;;10.50;9.67;;;;;;;;;;5050888;28;20484;-76
2021/06/29 10:33:12;;;;;;;11.10;10.30;;;;;;;;;;5049475;28;20737;-76
2021/06/29 10:35:38;;;;;;;10.93;10.23;;;;;;;;;;5052523;28;20411;-76
2021/06/29 10:38:05;;;;;;;10.73;9.93;;;;;;;;;;5052127;28;20419;-76
2021/06/29 10:40:32;;;;;;;12.10;11.10;;;;;;;;;;5052581;28;20403;-77
2021/06/29 10:43:01;;;;;;;13.03;11.10;;;;;;;;;;5052353;28;20458;-74
2021/06/29 10:45:37;;;;;;;12.70;11.80;;;;;;;;;;5052613;28;20810;-77
2021/06/29 10:48:15;;;;;;;12.70;11.60;;;;;;;;;;5052175;28;20411;-75
2021/06/29 10:50:41;;;;;;;12.00;11.00;;;;;;;;;;5052197;28;20403;-73
2021/06/29 10:53:27;;;;;;;11.87;10.80;;;;;;;;;;5052527;28;20418;-73
2021/06/29 10:55:53;;;;;;;13.17;12.07;;;;;;;;;;5052116;28;20451;-74
2021/06/29 10:58:34;;;;;;;11.70;10.73;;;;;;;;;;5051841;28;20442;-75
2021/06/29 11:01:18;;;;;;;15.23;11.40;;;;;;;;;;5052053;28;20415;-73
2021/06/29 11:03:45;;;;;;;12.60;11.67;;;;;;;;;;5051734;28;20427;-73
2021/06/29 11:06:11;;;;;;;12.80;11.67;;;;;;;;;;5051661;28;20430;-73
2021/06/29 11:08:46;;;;;;;11.80;10.87;;;;;;;;;;5049972;28;20467;-73
2021/06/29 11:11:13;;;;;;;14.93;13.70;;;;;;;;;;5051714;28;20438;-75
2021/06/29 11:13:40;;;;;;;13.97;12.97;;;;;;;;;;5046759;28;20431;-73
2021/06/29 11:16:06;;;;;;;13.77;12.67;;;;;;;;;;5044050;28;20454;-73
2021/06/29 11:18:35;;;;;;;12.93;11.97;;;;;;;;;;5049787;28;20471;-71
2021/06/29 11:21:04;;;;;;;13.50;12.50;;;;;;;;;;5047722;28;20881;-75
2021/06/29 11:23:34;;;;;;;13.73;12.73;;;;;;;;;;5049676;28;20411;-76
2021/06/29 11:26:01;;;;;;;14.70;13.30;;;;;;;;;;5051525;28;20419;-76
2021/06/29 11:28:32;;;;;;;13.13;12.23;;;;;;;;;;5051015;28;20420;-77
2021/06/29 11:31:17;;;;;;;12.97;11.87;;;;;;;;;;5049534;28;20438;-75
2021/06/29 11:33:45;;;;;;;13.40;12.20;;;;;;;;;;5041104;28;20419;-75
2021/06/29 11:36:28;;;;;;;11.57;10.57;;;;;;;;;;5052176;28;20931;-75
2021/06/29 11:38:58;;;;;;;9.20;8.50;;;;;;;;;;5051288;28;20435;-80
2021/06/29 11:41:25;;;;;;;6.07;5.67;;;;;;;;;;5051530;28;20467;-76
2021/06/29 11:43:51;;;;;;;6.47;6.07;;;;;;;;;;5051689;28;20419;-76
2021/06/29 11:46:36;;;;;;;5.77;5.37;;;;;;;;;;5051158;28;20560;-79
2021/06/29 11:49:08;;;;;;;6.57;5.90;;;;;;;;;;5050979;28;20435;-77
2021/06/29 11:51:53;;;;;;;7.37;5.67;;;;;;;;;;5051217;28;20506;-81
2021/06/29 11:54:39;;;;;;;6.77;6.00;;;;;;;;;;5051150;28;20442;-77
2021/06/29 11:57:24;;;;;;;7.27;6.73;;;;;;;;;;5049041;28;20450;-76
2021/06/29 11:59:51;;;;;;;8.23;7.50;;;;;;;;;;5038428;28;20865;-74
2021/06/29 12:02:19;;;;;;;11.47;10.57;;;;;;;;;;5050664;28;20462;-79
2021/06/29 12:04:53;;;;;;;10.30;9.50;;;;;;;;;;5050586;28;20499;-78
2021/06/29 12:07:29;;;;;;;11.53;10.63;;;;;;;;;;5050505;28;20419;-77
2021/06/29 12:09:55;;;;;;;12.33;11.30;;;;;;;;;;5050787;28;20939;-77
2021/06/29 12:12:23;;;;;;;11.90;10.90;;;;;;;;;;5050570;28;20419;-78
2021/06/29 12:15:01;;;;;;;11.17;10.27;;;;;;;;;;5049120;28;20431;-74
2021/06/29 12:17:28;;;;;;;11.63;10.70;;;;;;;;;;5049954;28;20415;-75
2021/06/29 12:19:58;;;;;;;11.27;10.47;;;;;;;;;;5050322;28;20470;-76
2021/06/29 12:22:31;;;;;;;12.20;11.20;;;;;;;;;;5050477;28;20463;-76
2021/06/29 12:24:58;;;;;;;10.67;9.97;;;;;;;;;;5050255;28;20500;-75
2021/06/29 12:27:24;;;;;;;11.60;10.53;;;;;;;;;;5049891;28;20918;-76
2021/06/29 12:29:50;;;;;;;10.70;10.00;;;;;;;;;;5050110;28;20427;-77
2021/06/29 12:32:17;;;;;;;11.90;11.00;;;;;;;;;;5050067;28;20549;-77
2021/06/29 12:34:43;;;;;;;10.90;10.20;;;;;;;;;;5049643;28;20766;-75
2021/06/29 12:37:09;;;;;;;11.27;10.40;;;;;;;;;;5049566;28;20415;-76
2021/06/29 12:39:36;;;;;;;9.43;8.83;;;;;;;;;;5049986;28;20439;-76
2021/06/29 12:42:07;;;;;;;9.67;9.07;;;;;;;;;;5049988;28;20491;-77
2021/06/29 12:44:33;;;;;;;8.93;8.33;;;;;;;;;;5050033;28;20411;-77
2021/06/29 12:46:59;;;;;;;9.67;8.97;;;;;;;;;;5049336;28;20451;-77
2021/06/29 12:49:27;;;;;;;9.57;8.87;;;;;;;;;;5049512;28;20462;-74
2021/06/29 12:51:56;;;;;;;10.70;9.90;;;;;;;;;;5049982;28;20430;-75
2021/06/29 12:54:24;;;;;;;11.90;11.00;;;;;;;;;;5049098;28;20784;-77
2021/06/29 12:56:50;;;;;;;11.37;10.63;;;;;;;;;;5049140;28;20759;-76
2021/06/29 12:59:18;;;;;;;13.03;12.13;;;;;;;;;;5049716;28;21261;-75
2021/06/29 13:01:45;;;;;;;13.80;12.70;;;;;;;;;;5049757;28;20462;-76
2021/06/29 13:04:13;;;;;;;13.70;12.70;;;;;;;;;;5048270;28;20439;-76
2021/06/29 13:06:41;;;;;;;13.27;12.07;;;;;;;;;;5049411;28;20408;-75
2021/06/29 13:09:15;;;;;;;13.50;12.50;;;;;;;;;;5049355;28;20577;-75
2021/06/29 13:11:51;;;;;;;12.00;11.20;;;;;;;;;;5049745;28;20749;-75
2021/06/29 13:14:17;;;;;;;12.67;11.87;;;;;;;;;;5049768;28;20407;-75
2021/06/29 13:16:43;;;;;;;11.50;10.70;;;;;;;;;;5048850;28;20416;-76
2021/06/29 13:19:17;;;;;;;12.77;11.77;;;;;;;;;;5049485;28;20466;-75
2021/06/29 13:21:43;;;;;;;11.40;10.60;;;;;;;;;;5049335;28;20451;-76
2021/06/29 13:24:10;;;;;;;13.20;12.20;;;;;;;;;;5049550;28;20447;-75
2021/06/29 13:26:53;;;;;;;13.17;12.07;;;;;;;;;;5049089;28;20424;-77
2021/06/29 13:29:21;;;;;;;12.93;12.03;;;;;;;;;;5049211;28;20492;-76
2021/06/29 13:31:47;;;;;;;13.13;12.13;;;;;;;;;;5049401;28;20420;-74
2021/06/29 13:34:17;;;;;;;12.33;11.10;;;;;;;;;;5049179;28;20499;-76
2021/06/29 13:36:43;;;;;;;10.17;9.47;;;;;;;;;;5044563;28;20423;-75
2021/06/29 13:39:09;;;;;;;10.90;10.10;;;;;;;;;;5049029;28;20450;-75
2021/06/29 13:41:39;;;;;;;11.43;10.53;;;;;;;;;;5049004;28;20495;-75
2021/06/29 13:44:11;;;;;;;11.83;10.17;;;;;;;;;;5049059;28;20415;-75
2021/06/29 13:46:38;;;;;;;11.83;10.93;;;;;;;;;;5035080;28;20404;-75
2021/06/29 13:49:36;;;;;;;12.07;11.13;;;;;;;;;;5048711;28;20987;-78
2021/06/29 13:52:06;;;;;;;12.83;11.10;;;;;;;;;;5015515;28;20791;-75
2021/06/29 13:54:33;;;;;;;10.87;9.97;;;;;;;;;;5048857;28;20423;-77
2021/06/29 13:56:59;;;;;;;11.37;10.30;;;;;;;;;;5048556;28;20408;-75
2021/06/29 13:59:29;;;;;;;11.33;10.43;;;;;;;;;;5048516;28;20512;-75
2021/06/29 14:01:56;;;;;;;10.30;9.50;;;;;;;;;;5048604;28;20477;-76
2021/06/29 14:04:22;;;;;;;10.53;9.63;;;;;;;;;;5048892;28;20419;-77
2021/06/29 14:06:48;;;;;;;9.80;8.97;;;;;;;;;;5048546;28;20422;-76
2021/06/29 14:09:15;;;;;;;10.17;9.20;;;;;;;;;;5048579;28;20447;-75
2021/06/29 14:11:44;;;;;;;9.37;8.70;;;;;;;;;;5048714;28;20480;-77
2021/06/29 14:14:10;;;;;;;9.27;8.50;;;;;;;;;;5045929;28;20490;-76
2021/06/29 14:16:36;;;;;;;10.10;9.30;;;;;;;;;;5048338;28;20424;-74
2021/06/29 14:19:03;;;;;;;7.97;7.33;;;;;;;;;;5048901;28;20435;-78
2021/06/29 14:21:33;;;;;;;9.30;8.30;;;;;;;;;;5049251;28;20426;-73
2021/06/29 14:24:01;;;;;;;8.33;7.70;;;;;;;;;;5049319;28;20993;-77
2021/06/29 14:26:28;;;;;;;7.80;7.30;;;;;;;;;;5047878;28;20990;-76
2021/06/29 14:28:54;;;;;;;8.20;7.33;;;;;;;;;;5048729;28;20478;-77
2021/06/29 14:31:20;;;;;;;7.60;7.00;;;;;;;;;;5048879;28;20859;-77
2021/06/29 14:33:47;;;;;;;7.67;7.07;;;;;;;;;;5048959;28;20911;-77